Time;durP1;ratioP1;P1;durP2;ratioP2;P2;SDS_P1;SDS_P2;PMS_P1;PMS_P2;Temp;Humidity;BMP_temperature;BMP_pressure;BME280_temperature;BME280_humidity;BME280_pressure;Samples;Min_cycle;Max_cycle;Signal;HPM_P1;HPM_P2
2023/01/05 03:57:19;;;;;;;61.85;37.10;;;;;;;;;;6283489;22;20051;-94
2023/01/05 04:00:26;;;;;;;58.40;35.17;;;;;;;;;;6303613;22;20008;-95
2023/01/05 07:09:12;;;;;;;67.75;34.63;;;;;;;;;;6275432;22;20034;-96
2023/01/05 07:11:40;;;;;;;69.97;38.58;;;;;;;;;;6279096;22;20395;-93
2023/01/05 09:06:55;;;;;;;64.32;38.67;;;;;;;;;;6276249;22;20022;-96
2023/01/05 10:24:09;;;;;;;57.42;34.72;;;;;;;;;;6286469;22;20031;-93
2023/01/05 10:26:45;;;;;;;56.15;33.78;;;;;;;;;;6283880;22;20004;-93
2023/01/05 10:29:27;;;;;;;48.70;28.05;;;;;;;;;;6284979;22;20009;-95
2023/01/05 10:32:19;;;;;;;53.67;31.25;;;;;;;;;;6285784;22;20034;-94
2023/01/05 10:34:59;;;;;;;45.88;27.80;;;;;;;;;;6280609;22;20373;-95
2023/01/05 10:37:40;;;;;;;54.80;30.88;;;;;;;;;;6290745;22;20015;-94
2023/01/05 10:40:27;;;;;;;50.67;29.63;;;;;;;;;;6291580;22;20063;-94
2023/01/05 10:43:01;;;;;;;55.85;30.23;;;;;;;;;;6295921;22;19999;-94
2023/01/05 10:45:30;;;;;;;50.10;29.90;;;;;;;;;;6291478;22;19999;-93
2023/01/05 10:47:57;;;;;;;44.95;27.52;;;;;;;;;;6286840;22;20012;-94
2023/01/05 10:56:23;;;;;;;54.40;32.85;;;;;;;;;;6295968;22;20098;-94
2023/01/05 11:04:19;;;;;;;50.90;29.33;;;;;;;;;;6297959;22;20021;-96
2023/01/05 11:06:45;;;;;;;45.85;27.27;;;;;;;;;;6287990;22;20003;-94
2023/01/05 11:12:19;;;;;;;42.95;26.88;;;;;;;;;;6292679;22;20002;-95
2023/01/05 11:14:49;;;;;;;39.88;26.15;;;;;;;;;;6296004;22;20000;-94
2023/01/05 11:26:35;;;;;;;42.50;27.42;;;;;;;;;;6322225;22;20030;-94
2023/01/05 11:31:58;;;;;;;46.22;29.05;;;;;;;;;;6254757;22;20038;-95
2023/01/05 11:34:53;;;;;;;41.33;25.45;;;;;;;;;;6298450;22;20030;-94
2023/01/05 11:48:05;;;;;;;40.33;26.48;;;;;;;;;;6253653;22;20082;-94
2023/01/05 11:50:52;;;;;;;39.10;25.58;;;;;;;;;;6231158;23;20012;-94
2023/01/05 11:53:29;;;;;;;42.42;27.67;;;;;;;;;;6226441;23;20008;-94
2023/01/05 11:56:18;;;;;;;41.28;26.58;;;;;;;;;;6226164;23;20023;-93
2023/01/05 11:58:45;;;;;;;42.70;27.15;;;;;;;;;;6226286;23;19996;-94
2023/01/05 12:01:33;;;;;;;38.90;25.23;;;;;;;;;;6230307;23;20013;-94
2023/01/05 12:04:26;;;;;;;39.22;27.20;;;;;;;;;;6236747;23;20027;-94
2023/01/05 12:22:00;;;;;;;45.80;28.92;;;;;;;;;;6247781;22;20015;-95
2023/01/05 12:30:53;;;;;;;46.83;29.33;;;;;;;;;;6235826;23;20007;-95
2023/01/05 12:33:36;;;;;;;37.50;25.73;;;;;;;;;;6235095;23;20006;-93
2023/01/05 12:36:22;;;;;;;47.07;31.27;;;;;;;;;;6234918;23;20012;-94
2023/01/05 12:41:58;;;;;;;41.58;27.23;;;;;;;;;;6233689;23;20031;-95
2023/01/05 12:44:33;;;;;;;40.55;25.30;;;;;;;;;;6234751;23;20012;-94
2023/01/05 12:47:27;;;;;;;51.78;29.30;;;;;;;;;;6211298;23;19995;-94
2023/01/05 12:50:08;;;;;;;36.35;23.90;;;;;;;;;;6240148;23;20092;-95
2023/01/05 12:52:36;;;;;;;33.10;21.88;;;;;;;;;;6205858;23;20008;-95
2023/01/05 13:01:38;;;;;;;34.60;20.80;;;;;;;;;;6236369;23;20004;-95
2023/01/05 13:04:19;;;;;;;29.75;19.25;;;;;;;;;;6234104;23;20031;-95
2023/01/05 13:06:48;;;;;;;30.40;20.02;;;;;;;;;;6221344;23;20371;-84
2023/01/05 13:09:20;;;;;;;30.85;19.38;;;;;;;;;;6195113;23;20012;-86
2023/01/05 13:11:53;;;;;;;31.92;19.55;;;;;;;;;;6197006;23;20367;-91
2023/01/05 13:14:32;;;;;;;29.50;18.40;;;;;;;;;;6229079;23;20005;-95
2023/01/05 13:17:01;;;;;;;34.50;19.55;;;;;;;;;;6229053;23;20001;-94
2023/01/05 13:19:33;;;;;;;36.42;21.13;;;;;;;;;;6229553;23;20233;-95
2023/01/05 13:21:59;;;;;;;;;;;;;;;;;;6229409;23;20009;-95
2023/01/05 13:24:39;;;;;;;36.60;22.00;;;;;;;;;;6229230;23;19911;-94
2023/01/05 13:27:09;;;;;;;34.78;21.30;;;;;;;;;;6229436;23;20009;-96
2023/01/05 13:29:38;;;;;;;35.15;21.60;;;;;;;;;;6203690;23;20009;-96
2023/01/05 13:32:13;;;;;;;33.75;22.30;;;;;;;;;;6203632;23;20295;-95
2023/01/05 13:34:42;;;;;;;31.25;20.27;;;;;;;;;;6229293;23;20001;-95
2023/01/05 13:37:08;;;;;;;32.97;21.17;;;;;;;;;;6202145;23;20004;-94
2023/01/05 13:39:44;;;;;;;35.17;23.17;;;;;;;;;;6227962;23;20004;-95
2023/01/05 13:42:14;;;;;;;43.88;24.73;;;;;;;;;;6228893;23;20001;-94
2023/01/05 13:44:48;;;;;;;46.88;26.85;;;;;;;;;;6230569;23;19997;-94
2023/01/05 13:47:20;;;;;;;42.72;27.33;;;;;;;;;;6203027;23;20004;-95
2023/01/05 13:50:05;;;;;;;48.88;28.20;;;;;;;;;;6200281;23;20047;-95
2023/01/05 13:53:12;;;;;;;42.40;24.40;;;;;;;;;;6227525;23;20001;-95
2023/01/05 13:56:13;;;;;;;40.83;24.90;;;;;;;;;;6105763;23;20006;-94
2023/01/05 13:58:42;;;;;;;43.15;26.70;;;;;;;;;;6105456;23;20305;-95
2023/01/05 14:01:16;;;;;;;42.78;27.52;;;;;;;;;;6105118;23;20014;-94
2023/01/05 14:03:53;;;;;;;45.67;26.80;;;;;;;;;;6105332;23;20010;-96
2023/01/05 14:06:28;;;;;;;52.03;28.25;;;;;;;;;;6105222;23;20010;-94
2023/01/05 14:08:57;;;;;;;67.07;33.25;;;;;;;;;;6104518;23;20059;-94
2023/01/05 14:11:24;;;;;;;69.85;38.72;;;;;;;;;;6104915;23;20021;-93
2023/01/05 14:13:51;;;;;;;50.65;33.28;;;;;;;;;;6105606;23;20010;-95
2023/01/05 14:16:37;;;;;;;61.15;44.58;;;;;;;;;;6105312;23;20053;-94
2023/01/05 14:19:09;;;;;;;50.05;33.60;;;;;;;;;;6105281;23;20053;-95
2023/01/05 14:21:48;;;;;;;48.22;30.48;;;;;;;;;;6121998;23;20026;-95
2023/01/05 14:24:39;;;;;;;46.08;30.35;;;;;;;;;;6111375;23;20006;-95
2023/01/05 14:27:12;;;;;;;103.07;44.55;;;;;;;;;;6234737;23;20263;-93
2023/01/05 14:29:53;;;;;;;71.30;34.80;;;;;;;;;;6256659;23;20012;-94
2023/01/05 14:32:27;;;;;;;53.08;29.13;;;;;;;;;;6257880;23;20039;-94
2023/01/05 14:35:00;;;;;;;55.30;32.35;;;;;;;;;;6257699;23;20030;-96
2023/01/05 14:37:33;;;;;;;52.15;37.42;;;;;;;;;;6258024;22;20008;-95
2023/01/05 14:43:27;;;;;;;39.47;25.17;;;;;;;;;;6257979;23;20038;-95
2023/01/05 14:46:03;;;;;;;44.88;25.52;;;;;;;;;;6230718;23;20011;-94
2023/01/05 14:48:38;;;;;;;47.30;29.05;;;;;;;;;;6257648;23;20078;-94
2023/01/05 14:51:15;;;;;;;36.33;22.33;;;;;;;;;;6258592;23;20367;-95
2023/01/05 14:53:45;;;;;;;30.98;21.48;;;;;;;;;;6259210;23;20007;-94
2023/01/05 14:56:37;;;;;;;29.98;20.60;;;;;;;;;;6258774;22;20004;-94
2023/01/05 14:59:18;;;;;;;30.95;20.55;;;;;;;;;;6171595;23;20005;-95
2023/01/05 15:01:56;;;;;;;31.92;21.75;;;;;;;;;;6196513;23;20388;-95
2023/01/05 15:04:29;;;;;;;35.85;24.08;;;;;;;;;;6172301;23;20024;-95
2023/01/05 15:07:16;;;;;;;35.72;24.42;;;;;;;;;;6197225;23;20028;-96
2023/01/05 15:10:00;;;;;;;40.50;25.13;;;;;;;;;;6198673;23;20100;-95
2023/01/05 15:12:56;;;;;;;61.90;35.80;;;;;;;;;;6172677;23;20009;-95
2023/01/05 15:15:34;;;;;;;72.18;41.65;;;;;;;;;;6142944;22;20009;-94
2023/01/05 15:18:03;;;;;;;69.38;40.20;;;;;;;;;;6143034;23;20001;-94
2023/01/05 15:20:32;;;;;;;49.95;28.10;;;;;;;;;;6168016;23;20012;-94
2023/01/05 15:23:00;;;;;;;48.00;28.85;;;;;;;;;;6169253;23;20482;-95
2023/01/05 15:25:29;;;;;;;43.47;28.08;;;;;;;;;;6145272;23;19997;-94
2023/01/05 15:28:04;;;;;;;75.88;41.40;;;;;;;;;;6146639;23;20006;-94
2023/01/05 15:30:49;;;;;;;51.00;31.35;;;;;;;;;;6175372;23;20048;-94
2023/01/05 15:33:29;;;;;;;47.78;29.58;;;;;;;;;;6201796;23;20025;-95
2023/01/05 15:36:07;;;;;;;44.05;27.25;;;;;;;;;;6201504;23;20017;-95
2023/01/05 15:38:43;;;;;;;48.85;27.73;;;;;;;;;;6175038;23;20112;-94
2023/01/05 15:41:14;;;;;;;41.40;25.63;;;;;;;;;;6199633;23;20001;-95
2023/01/05 15:43:41;;;;;;;38.85;25.83;;;;;;;;;;6174426;23;19997;-94
2023/01/05 15:46:08;;;;;;;41.28;25.17;;;;;;;;;;6199541;23;19997;-96
2023/01/05 15:48:37;;;;;;;59.05;37.63;;;;;;;;;;6198877;23;20005;-94
2023/01/05 15:51:04;;;;;;;60.65;36.85;;;;;;;;;;6208548;23;20371;-88
2023/01/05 15:53:39;;;;;;;71.00;43.55;;;;;;;;;;6252768;23;20083;-88
2023/01/05 15:56:06;;;;;;;86.07;45.05;;;;;;;;;;6226237;23;20266;-88
2023/01/05 15:58:42;;;;;;;65.22;37.13;;;;;;;;;;6226242;23;20410;-89
2023/01/05 16:01:10;;;;;;;50.28;29.70;;;;;;;;;;6226426;23;20000;-89
2023/01/05 16:03:38;;;;;;;58.08;43.53;;;;;;;;;;6252564;23;20004;-88
2023/01/05 16:06:10;;;;;;;40.70;26.83;;;;;;;;;;6253275;23;19996;-90
2023/01/05 16:08:40;;;;;;;36.38;24.38;;;;;;;;;;6226716;23;20019;-89
2023/01/05 16:11:43;;;;;;;40.42;25.70;;;;;;;;;;6252740;23;20023;-89
2023/01/05 16:14:16;;;;;;;42.92;28.80;;;;;;;;;;6252497;23;20075;-89
2023/01/05 16:16:48;;;;;;;41.05;26.88;;;;;;;;;;6253101;23;20004;-89
2023/01/05 16:19:35;;;;;;;38.92;23.77;;;;;;;;;;6226486;23;20010;-90
2023/01/05 16:22:01;;;;;;;35.83;24.08;;;;;;;;;;6230505;22;20017;-90
2023/01/05 16:24:43;;;;;;;40.83;24.27;;;;;;;;;;6197133;23;20005;-89
2023/01/05 16:27:21;;;;;;;40.53;24.13;;;;;;;;;;6220820;23;20008;-94
2023/01/05 16:29:47;;;;;;;45.45;26.83;;;;;;;;;;6222290;23;20020;-94
2023/01/05 16:32:27;;;;;;;102.22;44.97;;;;;;;;;;6222115;23;20009;-93
2023/01/05 16:35:22;;;;;;;150.05;77.07;;;;;;;;;;6197683;23;20051;-93
2023/01/05 16:38:07;;;;;;;59.13;35.80;;;;;;;;;;6195827;23;20021;-91
2023/01/05 16:40:56;;;;;;;37.88;24.13;;;;;;;;;;6223208;23;20012;-92
2023/01/05 16:43:35;;;;;;;;;;;;;;;;;;;;;
2023/01/05 16:46:38;;;;;;;34.30;21.00;;;;;;;;;;6218997;23;20084;-93
2023/01/05 16:49:15;;;;;;;45.83;24.20;;;;;;;;;;6223050;23;20271;-92
2023/01/05 16:51:52;;;;;;;43.38;26.52;;;;;;;;;;6223272;23;20024;-94
2023/01/05 16:54:35;;;;;;;41.42;27.58;;;;;;;;;;6195865;23;20359;-94
2023/01/05 16:57:04;;;;;;;42.25;28.55;;;;;;;;;;6221747;23;20005;-93
2023/01/05 17:05:45;;;;;;;67.20;48.05;;;;;;;;;;6160612;23;20066;-91
2023/01/05 17:08:37;;;;;;;77.68;53.22;;;;;;;;;;6134976;23;20037;-92
2023/01/05 17:11:07;;;;;;;108.47;77.57;;;;;;;;;;6158311;23;20009;-92
2023/01/05 17:13:39;;;;;;;104.88;60.47;;;;;;;;;;6160092;23;20545;-93
2023/01/05 17:16:42;;;;;;;;;;;;;;;;;;;;;
2023/01/05 17:19:18;;;;;;;152.63;63.90;;;;;;;;;;6157535;23;20044;-94
2023/01/05 17:22:05;;;;;;;159.13;60.58;;;;;;;;;;6152300;23;20013;-94
2023/01/05 17:30:28;;;;;;;140.07;51.50;;;;;;;;;;6100696;23;20013;-94
2023/01/05 17:33:10;;;;;;;;;;;;;;;;;;;;;
2023/01/05 17:35:42;;;;;;;79.07;36.67;;;;;;;;;;6097714;23;20078;-94
2023/01/05 17:38:09;;;;;;;61.08;27.67;;;;;;;;;;6100618;23;20018;-93
2023/01/05 17:40:36;;;;;;;53.15;25.00;;;;;;;;;;6100725;23;20011;-90
2023/01/05 17:43:02;;;;;;;62.67;26.60;;;;;;;;;;6121469;23;20009;-93
2023/01/05 17:45:29;;;;;;;57.33;25.75;;;;;;;;;;6105363;23;20036;-93
2023/01/05 17:47:55;;;;;;;58.58;24.55;;;;;;;;;;6129546;23;20014;-92
2023/01/05 17:50:26;;;;;;;47.20;21.52;;;;;;;;;;6105432;23;20106;-92
2023/01/05 17:52:53;;;;;;;55.05;21.27;;;;;;;;;;6105581;23;20033;-92
2023/01/05 17:55:19;;;;;;;41.72;20.50;;;;;;;;;;6129667;23;20073;-93
2023/01/05 17:57:46;;;;;;;38.38;19.23;;;;;;;;;;6129975;23;20247;-93
2023/01/05 18:00:14;;;;;;;31.27;18.85;;;;;;;;;;6105156;23;20009;-92
2023/01/05 18:02:49;;;;;;;24.15;14.82;;;;;;;;;;6130064;23;20013;-94
2023/01/05 18:05:16;;;;;;;25.60;16.98;;;;;;;;;;6235189;23;20080;-92
2023/01/05 18:07:45;;;;;;;26.35;15.75;;;;;;;;;;6225154;23;20012;-95
2023/01/05 18:10:24;;;;;;;24.08;15.60;;;;;;;;;;6252401;22;20004;-93
2023/01/05 18:12:53;;;;;;;25.17;15.43;;;;;;;;;;6252031;23;20062;-91
2023/01/05 18:15:19;;;;;;;21.88;13.60;;;;;;;;;;6224783;23;20004;-93
2023/01/05 18:17:45;;;;;;;20.63;13.48;;;;;;;;;;6251260;23;20008;-92
2023/01/05 18:20:15;;;;;;;30.92;14.73;;;;;;;;;;6251031;23;20071;-94
2023/01/05 18:22:43;;;;;;;31.92;14.18;;;;;;;;;;6221763;22;20016;-93
2023/01/05 18:28:15;;;;;;;38.22;19.25;;;;;;;;;;6220885;23;20014;-94
2023/01/05 18:30:48;;;;;;;34.92;19.00;;;;;;;;;;6220620;23;20027;-94
2023/01/05 18:33:46;;;;;;;;;;;;;;;;;;;;;
2023/01/05 18:36:14;;;;;;;21.80;13.00;;;;;;;;;;6144014;23;20072;-93
2023/01/05 18:38:45;;;;;;;22.50;12.50;;;;;;;;;;6220265;23;20013;-94
2023/01/05 18:41:40;;;;;;;;;;;;;;;;;;;;;
2023/01/05 18:44:06;;;;;;;15.07;8.93;;;;;;;;;;6216950;23;20080;-90
2023/01/05 18:46:43;;;;;;;;;;;;;;;;;;;;;
2023/01/05 18:49:15;;;;;;;16.67;9.05;;;;;;;;;;6214686;23;20338;-93
2023/01/05 18:51:43;;;;;;;;;;;;;;;;;;6195071;23;20000;-94
2023/01/05 18:54:12;;;;;;;15.93;9.20;;;;;;;;;;6221151;23;20142;-92
2023/01/05 18:59:42;;;;;;;20.98;12.10;;;;;;;;;;6220555;23;20016;-93
2023/01/05 19:02:15;;;;;;;21.67;13.75;;;;;;;;;;6220655;23;20025;-94
2023/01/05 19:04:41;;;;;;;27.58;15.23;;;;;;;;;;6194717;23;20004;-94
2023/01/05 19:07:30;;;;;;;29.65;17.80;;;;;;;;;;6220558;23;20009;-94
2023/01/05 19:09:58;;;;;;;34.05;21.13;;;;;;;;;;6217302;23;20363;-94
2023/01/05 19:12:24;;;;;;;40.05;26.02;;;;;;;;;;6194179;23;20270;-92
2023/01/05 19:14:54;;;;;;;41.83;26.63;;;;;;;;;;6195942;23;20005;-93
2023/01/05 19:17:20;;;;;;;48.35;33.78;;;;;;;;;;6220776;23;20005;-94
2023/01/05 19:19:51;;;;;;;41.97;29.10;;;;;;;;;;6221456;23;20363;-94
2023/01/05 19:22:19;;;;;;;36.42;24.63;;;;;;;;;;6214064;23;20275;-94
2023/01/05 19:24:48;;;;;;;30.27;19.30;;;;;;;;;;6221427;23;19993;-93
2023/01/05 19:30:41;;;;;;;27.40;17.27;;;;;;;;;;6220006;23;20046;-94
2023/01/05 19:33:16;;;;;;;34.45;20.02;;;;;;;;;;6220176;23;20051;-94
2023/01/05 19:36:07;;;;;;;43.70;23.00;;;;;;;;;;6221652;23;20005;-94
2023/01/05 19:38:35;;;;;;;36.42;21.27;;;;;;;;;;6222595;23;20036;-91
2023/01/05 19:41:05;;;;;;;35.65;20.60;;;;;;;;;;6221417;23;20008;-94
2023/01/05 19:43:31;;;;;;;32.13;19.40;;;;;;;;;;6220005;23;20005;-93
2023/01/05 19:45:58;;;;;;;31.77;19.88;;;;;;;;;;6221758;23;20005;-92
2023/01/05 19:48:25;;;;;;;32.17;19.38;;;;;;;;;;6219504;23;20028;-94
2023/01/05 19:51:13;;;;;;;48.05;24.85;;;;;;;;;;6220437;23;20004;-94
2023/01/05 19:53:40;;;;;;;54.22;26.88;;;;;;;;;;6220735;23;20009;-93
2023/01/05 20:02:13;;;;;;;50.88;27.83;;;;;;;;;;6227431;23;20007;-87
2023/01/05 20:04:41;;;;;;;47.97;27.15;;;;;;;;;;6220533;23;20028;-87
2023/01/05 20:07:09;;;;;;;50.08;27.45;;;;;;;;;;6219166;23;20051;-87
2023/01/05 20:09:35;;;;;;;46.58;25.10;;;;;;;;;;6220982;23;20096;-87
2023/01/05 20:12:02;;;;;;;38.05;21.27;;;;;;;;;;6220533;23;20019;-86
2023/01/05 20:14:30;;;;;;;33.05;20.63;;;;;;;;;;6220666;23;20036;-87
2023/01/05 20:16:57;;;;;;;30.95;20.52;;;;;;;;;;6222273;23;20004;-88
2023/01/05 20:19:27;;;;;;;33.40;19.88;;;;;;;;;;6222135;23;20416;-87
2023/01/05 20:21:54;;;;;;;36.13;21.15;;;;;;;;;;6221442;22;20043;-85
2023/01/05 20:24:21;;;;;;;27.08;17.80;;;;;;;;;;6222154;23;20004;-87
2023/01/05 20:27:07;;;;;;;30.52;18.52;;;;;;;;;;6195615;23;20371;-86
2023/01/05 20:29:34;;;;;;;30.85;18.70;;;;;;;;;;6195737;23;20005;-86
2023/01/05 20:32:05;;;;;;;27.45;17.63;;;;;;;;;;6195910;23;20011;-87
2023/01/05 20:34:34;;;;;;;29.92;18.48;;;;;;;;;;6195309;23;20011;-88
2023/01/05 20:37:02;;;;;;;30.70;18.38;;;;;;;;;;6221860;23;20012;-87
2023/01/05 20:39:29;;;;;;;31.23;19.63;;;;;;;;;;6221600;23;19997;-87
2023/01/05 20:41:55;;;;;;;33.60;21.52;;;;;;;;;;6221571;23;20008;-87
2023/01/05 20:44:22;;;;;;;40.58;22.88;;;;;;;;;;6195690;23;20433;-87
2023/01/05 20:46:50;;;;;;;39.40;23.63;;;;;;;;;;6222189;23;20020;-87
2023/01/05 20:49:16;;;;;;;41.15;24.27;;;;;;;;;;6221642;23;20426;-86
2023/01/05 20:51:43;;;;;;;44.08;26.60;;;;;;;;;;6195366;23;20043;-87
2023/01/05 20:54:09;;;;;;;46.65;27.60;;;;;;;;;;6221955;23;20046;-87
2023/01/05 20:59:57;;;;;;;43.28;25.63;;;;;;;;;;6221905;23;20059;-87
2023/01/05 21:02:23;;;;;;;39.42;23.52;;;;;;;;;;6195536;23;20008;-87
2023/01/05 21:04:49;;;;;;;37.03;22.42;;;;;;;;;;6221756;23;20008;-88
2023/01/05 21:07:15;;;;;;;41.03;23.63;;;;;;;;;;6221171;23;20023;-87
2023/01/05 21:09:42;;;;;;;52.63;29.25;;;;;;;;;;6195064;23;20004;-88
2023/01/05 21:12:08;;;;;;;64.40;34.38;;;;;;;;;;6196098;23;20091;-88
2023/01/05 21:14:34;;;;;;;52.67;31.50;;;;;;;;;;6195552;23;20013;-87
2023/01/05 21:17:00;;;;;;;50.05;26.35;;;;;;;;;;6221455;23;20035;-87
2023/01/05 21:19:26;;;;;;;38.90;22.92;;;;;;;;;;6195557;23;20004;-88
2023/01/05 21:21:54;;;;;;;33.72;20.75;;;;;;;;;;6220809;22;20012;-88
2023/01/05 21:24:21;;;;;;;36.45;21.15;;;;;;;;;;6194243;23;20375;-87
2023/01/05 21:26:47;;;;;;;39.03;22.35;;;;;;;;;;6195066;23;20287;-87
2023/01/05 21:29:14;;;;;;;68.95;29.45;;;;;;;;;;6221120;23;20613;-86
2023/01/05 21:31:41;;;;;;;53.80;28.20;;;;;;;;;;6221609;23;20055;-87
2023/01/05 21:34:10;;;;;;;63.90;27.55;;;;;;;;;;6220611;23;20099;-87
2023/01/05 21:36:38;;;;;;;51.47;24.50;;;;;;;;;;6221306;23;20012;-87
2023/01/05 21:39:08;;;;;;;52.90;24.58;;;;;;;;;;6221869;23;20011;-87
2023/01/05 21:44:20;;;;;;;71.40;26.52;;;;;;;;;;6222641;23;20089;-93
2023/01/05 21:46:47;;;;;;;60.80;24.85;;;;;;;;;;6221288;23;20020;-93
2023/01/05 21:49:14;;;;;;;64.93;25.23;;;;;;;;;;6221691;23;20071;-94
2023/01/05 22:03:55;;;;;;;55.55;23.10;;;;;;;;;;6221328;23;19999;-94
2023/01/05 22:06:21;;;;;;;63.35;24.85;;;;;;;;;;6221281;23;20004;-94
2023/01/05 22:08:48;;;;;;;57.78;23.52;;;;;;;;;;6221832;23;20009;-93
2023/01/05 22:11:51;;;;;;;65.20;25.50;;;;;;;;;;6195172;23;20004;-94
2023/01/05 22:14:17;;;;;;;69.85;26.10;;;;;;;;;;6195085;23;20032;-96
2023/01/05 22:16:43;;;;;;;70.00;27.75;;;;;;;;;;6195225;23;20004;-94
2023/01/05 22:19:09;;;;;;;62.00;24.35;;;;;;;;;;6221831;23;20047;-93
2023/01/05 22:21:36;;;;;;;62.05;23.10;;;;;;;;;;6220951;22;20017;-94
2023/01/05 22:24:02;;;;;;;70.53;22.92;;;;;;;;;;6195099;23;20011;-95
2023/01/05 22:29:32;;;;;;;43.67;17.30;;;;;;;;;;6221316;23;20002;-95
2023/01/05 22:31:58;;;;;;;29.48;15.35;;;;;;;;;;6195074;23;20004;-93
2023/01/05 22:34:24;;;;;;;33.67;16.60;;;;;;;;;;6220896;23;20005;-94
2023/01/05 22:36:50;;;;;;;25.40;13.35;;;;;;;;;;6221633;23;20015;-93
2023/01/05 22:39:16;;;;;;;20.25;11.75;;;;;;;;;;6221361;23;20001;-93
2023/01/05 22:41:42;;;;;;;21.08;11.60;;;;;;;;;;6221462;23;20352;-94
2023/01/05 22:44:08;;;;;;;21.02;10.50;;;;;;;;;;6221091;23;20008;-94
2023/01/05 22:46:34;;;;;;;20.77;11.82;;;;;;;;;;6194624;23;20032;-93
2023/01/05 22:49:01;;;;;;;18.92;11.65;;;;;;;;;;6221339;23;20027;-94
2023/01/05 22:51:28;;;;;;;22.63;11.55;;;;;;;;;;6194694;23;20005;-94
2023/01/05 22:53:54;;;;;;;25.48;13.73;;;;;;;;;;6221644;23;20028;-94
2023/01/05 22:59:24;;;;;;;24.25;13.15;;;;;;;;;;6220977;23;20019;-94
2023/01/05 23:01:50;;;;;;;20.33;12.35;;;;;;;;;;6221633;23;20001;-94
2023/01/05 23:04:41;;;;;;;19.92;10.02;;;;;;;;;;6221241;23;20001;-94
2023/01/05 23:07:07;;;;;;;17.73;8.20;;;;;;;;;;6220834;23;20029;-94
2023/01/05 23:09:33;;;;;;;15.45;7.22;;;;;;;;;;6221193;23;20083;-93
2023/01/05 23:12:00;;;;;;;14.80;7.72;;;;;;;;;;6195030;23;20004;-92
2023/01/05 23:14:26;;;;;;;14.65;7.05;;;;;;;;;;6221292;23;20012;-94
2023/01/05 23:16:52;;;;;;;14.93;8.50;;;;;;;;;;6194609;23;20367;-94
2023/01/05 23:19:18;;;;;;;16.30;7.43;;;;;;;;;;6220920;23;20005;-93
2023/01/05 23:21:44;;;;;;;19.50;8.00;;;;;;;;;;6220921;22;20008;-94
2023/01/05 23:24:10;;;;;;;13.20;6.80;;;;;;;;;;6221240;23;20003;-94
2023/01/05 23:33:01;;;;;;;12.27;6.65;;;;;;;;;;6220921;23;20043;-94
2023/01/05 23:35:28;;;;;;;13.23;5.93;;;;;;;;;;6221140;23;19997;-95
2023/01/05 23:37:54;;;;;;;10.05;5.50;;;;;;;;;;6194330;23;20016;-95
2023/01/05 23:40:20;;;;;;;9.05;6.00;;;;;;;;;;6194680;23;20009;-93
2023/01/05 23:42:47;;;;;;;13.48;7.18;;;;;;;;;;6194514;23;20000;-94
2023/01/05 23:45:13;;;;;;;10.57;6.22;;;;;;;;;;6221136;23;20008;-94
2023/01/05 23:47:40;;;;;;;14.55;7.03;;;;;;;;;;6196456;23;20009;-92
2023/01/05 23:50:06;;;;;;;11.68;6.40;;;;;;;;;;6222760;23;19997;-95
2023/01/05 23:52:32;;;;;;;12.88;6.88;;;;;;;;;;6222536;23;20009;-93
2023/01/05 23:54:58;;;;;;;17.80;6.78;;;;;;;;;;6196292;23;20004;-94
2023/01/05 23:57:40;;;;;;;15.27;7.20;;;;;;;;;;6222697;23;20005;-94
